Harding, Illinois
Current Conditions -  °F | °C
As of 12:55 PM on Friday 21 Nov 2014 (Local Time) from KVYS Reporting Station
Clear Clear  
Wind Chill: 22°   Ceiling: Unl
Heat Index: 33°   Visibility: 10mi
Dew Point:   Wind: 17mph
Humidity: 29%   Direction: 160°SSE
Pressure: 30.37"   Gusts: NA
Location:  41.5869°N, 88.887°W
Report Text: KVYS 211855Z AUTO 16015KT 10SM CLR 01/M16 A3037 RMK AO2 T00071156
Loading
Personal Weather Stations






























Interactive Weather Map New forecast layout! Learn more

10-Day Weather Forecast

Advertisements
Track Severe Weather on mobile